createdAt,value
2022-11-12T00:00:59.593Z,10.70
2022-11-12T00:03:27.685Z,10.60
2022-11-12T00:05:54.793Z,11.40
2022-11-12T00:08:22.626Z,9.83
2022-11-12T00:10:49.657Z,10.57
2022-11-12T00:13:16.900Z,10.50
2022-11-12T00:15:46.678Z,10.07
2022-11-12T00:18:13.800Z,10.73
2022-11-12T00:20:40.829Z,11.20
2022-11-12T00:23:08.115Z,9.97
2022-11-12T00:25:36.229Z,9.27
2022-11-12T00:28:08.917Z,10.33
2022-11-12T00:30:38.620Z,11.57
2022-11-12T00:33:05.537Z,10.17
2022-11-12T00:35:33.763Z,11.33
2022-11-12T00:38:01.360Z,10.23
2022-11-12T00:40:29.478Z,10.53
2022-11-12T00:42:56.863Z,10.70
2022-11-12T00:45:25.070Z,9.60
2022-11-12T00:47:56.682Z,9.50
2022-11-12T00:50:24.176Z,10.53
2022-11-12T00:52:54.654Z,9.63
2022-11-12T00:55:21.559Z,9.87
2022-11-12T00:57:48.702Z,9.97
2022-11-12T01:00:18.121Z,9.97
2022-11-12T01:02:51.111Z,9.90
2022-11-12T01:05:20.072Z,10.83
2022-11-12T01:07:51.649Z,10.10
2022-11-12T01:10:20.155Z,9.60
2022-11-12T01:12:46.997Z,10.03
2022-11-12T01:15:14.127Z,9.47
2022-11-12T01:17:41.246Z,10.33
2022-11-12T01:20:08.660Z,9.17
2022-11-12T01:22:35.601Z,9.87
2022-11-12T01:25:02.766Z,10.33
2022-11-12T01:27:30.469Z,9.77
2022-11-12T01:29:57.289Z,10.67
2022-11-12T01:32:24.235Z,9.77
2022-11-12T01:34:51.727Z,9.63
2022-11-12T01:37:18.919Z,10.20
2022-11-12T01:39:45.989Z,9.70
2022-11-12T01:42:13.170Z,10.27
2022-11-12T01:44:44.661Z,10.30
2022-11-12T01:47:11.607Z,9.27
2022-11-12T01:49:57.305Z,9.20
2022-11-12T01:52:39.733Z,9.57
2022-11-12T01:55:20.081Z,9.43
2022-11-12T01:58:00.159Z,9.60
2022-11-12T02:00:27.270Z,10.27
2022-11-12T02:02:59.507Z,8.97
2022-11-12T02:05:29.615Z,9.77
2022-11-12T02:07:58.768Z,9.50
2022-11-12T02:10:26.229Z,9.70
2022-11-12T02:13:13.229Z,9.57
2022-11-12T02:15:41.749Z,8.57
2022-11-12T02:18:09.151Z,10.40
2022-11-12T02:20:38.300Z,8.93
2022-11-12T02:23:07.590Z,9.13
2022-11-12T02:25:35.403Z,9.47
2022-11-12T02:28:06.913Z,8.73
2022-11-12T02:30:43.426Z,9.30
2022-11-12T02:33:10.550Z,9.23
2022-11-12T02:35:37.857Z,8.97
2022-11-12T02:38:06.283Z,8.80
2022-11-12T02:40:33.488Z,9.00
2022-11-12T02:43:01.067Z,9.90
2022-11-12T02:45:28.825Z,9.47
2022-11-12T02:47:55.809Z,9.53
2022-11-12T02:50:22.729Z,10.50
2022-11-12T02:52:50.820Z,8.50
2022-11-12T02:55:18.021Z,9.13
2022-11-12T02:57:45.137Z,10.20
2022-11-12T03:00:13.447Z,9.77
2022-11-12T03:02:42.959Z,9.57
2022-11-12T03:05:11.126Z,9.33
2022-11-12T03:07:38.691Z,10.40
2022-11-12T03:10:06.239Z,10.00
2022-11-12T03:12:33.324Z,11.13
2022-11-12T03:15:00.415Z,10.23
2022-11-12T03:17:27.432Z,10.53
2022-11-12T03:19:54.532Z,10.53
2022-11-12T03:22:21.797Z,10.47
2022-11-12T03:24:48.831Z,9.63
2022-11-12T03:27:16.101Z,9.90
2022-11-12T03:29:43.147Z,10.60
2022-11-12T03:32:10.305Z,10.67
2022-11-12T03:34:37.418Z,10.63
2022-11-12T03:37:04.331Z,10.53
2022-11-12T03:39:31.503Z,10.73
2022-11-12T03:41:58.591Z,12.00
2022-11-12T03:44:25.715Z,11.07
2022-11-12T03:46:52.572Z,11.70
2022-11-12T03:49:19.418Z,12.73
2022-11-12T03:51:46.894Z,11.83
2022-11-12T03:54:14.034Z,12.30
2022-11-12T03:56:41.169Z,13.57
2022-11-12T03:59:08.058Z,12.40
2022-11-12T04:01:35.394Z,12.83
2022-11-12T04:04:02.296Z,12.80
2022-11-12T04:06:48.036Z,12.37
2022-11-12T04:09:15.084Z,12.97
2022-11-12T04:11:42.198Z,11.63
2022-11-12T04:14:09.065Z,13.57
2022-11-12T04:16:54.695Z,12.83
2022-11-12T04:19:40.285Z,12.67
2022-11-12T04:22:10.911Z,13.80
2022-11-12T04:24:59.053Z,12.90
2022-11-12T04:27:27.339Z,13.03
2022-11-12T04:30:13.322Z,12.30
2022-11-12T04:32:50.901Z,13.23
2022-11-12T04:35:19.201Z,14.07
2022-11-12T04:37:47.002Z,13.70
2022-11-12T04:40:41.285Z,14.37
2022-11-12T04:43:32.175Z,14.80
2022-11-12T04:46:00.638Z,13.17
2022-11-12T04:48:27.853Z,13.87
2022-11-12T04:50:58.645Z,12.93
2022-11-12T04:53:26.411Z,14.33
2022-11-12T04:55:55.341Z,13.37
2022-11-12T04:58:22.607Z,13.57
2022-11-12T05:00:50.637Z,13.33
2022-11-12T05:03:18.591Z,13.77
2022-11-12T05:05:45.578Z,15.17
2022-11-12T05:08:12.427Z,14.33
2022-11-12T05:10:40.509Z,13.50
2022-11-12T05:13:07.316Z,14.67
2022-11-12T05:15:34.142Z,15.77
2022-11-12T05:18:01.193Z,15.93
2022-11-12T05:20:28.270Z,15.17
2022-11-12T05:23:06.041Z,15.37
2022-11-12T05:25:34.838Z,15.10
2022-11-12T05:28:01.730Z,16.37
2022-11-12T05:30:28.881Z,18.30
2022-11-12T05:32:56.026Z,17.77
2022-11-12T05:35:23.173Z,15.90
2022-11-12T05:37:50.087Z,17.70
2022-11-12T05:40:17.215Z,15.87
2022-11-12T05:42:45.364Z,16.30
2022-11-12T05:45:12.393Z,17.90
2022-11-12T05:47:39.234Z,16.87
2022-11-12T05:50:06.803Z,17.20
2022-11-12T05:52:33.832Z,15.67
2022-11-12T05:55:00.665Z,16.23
2022-11-12T05:57:27.986Z,16.77
2022-11-12T05:59:55.011Z,15.97
2022-11-12T06:02:22.262Z,16.97
2022-11-12T06:04:49.300Z,16.77
2022-11-12T06:07:16.477Z,18.23
2022-11-12T06:09:43.599Z,18.50
2022-11-12T06:12:10.429Z,21.33
2022-11-12T06:14:37.817Z,20.83
2022-11-12T06:17:04.711Z,20.30
2022-11-12T06:19:31.565Z,18.30
2022-11-12T06:21:58.453Z,20.43
2022-11-12T06:24:27.474Z,18.73
2022-11-12T06:26:57.663Z,18.80
2022-11-12T06:29:24.810Z,19.27
2022-11-12T06:31:51.932Z,18.87
2022-11-12T06:34:18.790Z,20.47
2022-11-12T06:36:48.768Z,19.23
2022-11-12T06:39:17.724Z,19.77
2022-11-12T06:41:44.909Z,20.00
2022-11-12T06:44:12.030Z,19.73
2022-11-12T06:46:39.234Z,20.23
2022-11-12T06:49:06.431Z,19.63
2022-11-12T06:51:33.462Z,19.53
2022-11-12T06:54:00.283Z,20.23
2022-11-12T06:56:27.144Z,20.67
2022-11-12T06:58:53.992Z,21.00
2022-11-12T07:01:20.951Z,19.80
2022-11-12T07:03:52.552Z,20.80
2022-11-12T07:06:20.605Z,19.07
2022-11-12T07:08:50.345Z,20.00
2022-11-12T07:11:19.592Z,19.13
2022-11-12T07:13:47.823Z,19.93
2022-11-12T07:16:18.700Z,22.17
2022-11-12T07:18:49.657Z,19.57
2022-11-12T07:21:20.399Z,22.07
2022-11-12T07:23:48.011Z,19.83
2022-11-12T07:26:16.296Z,20.87
2022-11-12T07:28:45.859Z,20.70
2022-11-12T07:31:14.721Z,20.13
2022-11-12T07:33:42.900Z,20.47
2022-11-12T07:36:15.605Z,20.77
2022-11-12T07:38:43.580Z,20.30
2022-11-12T07:41:18.744Z,19.43
2022-11-12T07:43:47.765Z,19.87
2022-11-12T07:46:21.942Z,19.13
2022-11-12T07:48:49.206Z,21.57
2022-11-12T07:51:17.431Z,20.37
2022-11-12T07:53:45.891Z,20.97
2022-11-12T07:56:18.959Z,19.33
2022-11-12T07:58:46.368Z,19.13
2022-11-12T08:01:34.343Z,20.77
2022-11-12T08:04:03.379Z,18.07
2022-11-12T08:06:31.677Z,20.20
2022-11-12T08:09:00.451Z,19.90
2022-11-12T08:11:28.019Z,21.57
2022-11-12T08:13:55.025Z,20.43
2022-11-12T08:16:22.256Z,19.50
2022-11-12T08:18:49.535Z,20.83
2022-11-12T08:21:18.516Z,21.20
2022-11-12T08:23:46.179Z,19.60
2022-11-12T08:26:15.935Z,21.97
2022-11-12T08:28:43.071Z,21.17
2022-11-12T08:31:15.571Z,22.33
2022-11-12T08:33:42.917Z,23.07
2022-11-12T08:36:11.805Z,22.90
2022-11-12T08:38:39.322Z,23.17
2022-11-12T08:41:08.977Z,23.00
2022-11-12T08:43:36.616Z,23.47
2022-11-12T08:46:04.612Z,24.00
2022-11-12T08:48:33.155Z,22.60
2022-11-12T08:51:02.432Z,22.37
2022-11-12T08:53:29.419Z,23.27
2022-11-12T08:55:57.441Z,23.47
2022-11-12T08:58:25.956Z,23.80
2022-11-12T09:00:53.756Z,25.47
2022-11-12T09:03:23.233Z,25.00
2022-11-12T09:05:51.213Z,25.77
2022-11-12T09:08:22.078Z,25.43
2022-11-12T09:10:49.500Z,25.27
2022-11-12T09:13:18.204Z,26.13
2022-11-12T09:15:45.878Z,27.60
2022-11-12T09:18:15.861Z,25.83
2022-11-12T09:20:43.053Z,27.77
2022-11-12T09:23:13.600Z,21.50
2022-11-12T09:25:41.622Z,26.40
2022-11-12T09:28:09.741Z,23.70
2022-11-12T09:30:38.416Z,24.43
2022-11-12T09:33:05.500Z,24.40
2022-11-12T09:35:32.842Z,25.80
2022-11-12T09:37:59.896Z,26.30
2022-11-12T09:40:51.158Z,23.57
2022-11-12T09:43:25.823Z,23.97
2022-11-12T09:46:21.485Z,25.13
2022-11-12T09:48:49.400Z,25.10
2022-11-12T09:51:30.615Z,23.57
2022-11-12T09:53:58.486Z,19.20
2022-11-12T09:56:26.574Z,21.23
2022-11-12T09:58:54.036Z,15.50
2022-11-12T10:01:58.626Z,18.50
2022-11-12T10:04:37.638Z,18.57
2022-11-12T10:07:42.387Z,18.40
2022-11-12T10:10:31.096Z,18.13
2022-11-12T10:12:57.882Z,18.43
2022-11-12T10:15:55.552Z,17.90
2022-11-12T10:18:25.663Z,18.07
2022-11-12T10:21:03.225Z,19.00
2022-11-12T10:23:40.565Z,17.93
2022-11-12T10:26:19.081Z,19.80
2022-11-12T10:29:13.407Z,18.20
2022-11-12T10:31:40.438Z,17.63
2022-11-12T10:34:24.268Z,18.83
2022-11-12T10:37:05.073Z,18.20
2022-11-12T10:39:39.198Z,20.50
2022-11-12T10:42:12.457Z,20.20
2022-11-12T10:44:40.840Z,19.50
2022-11-12T10:47:26.931Z,18.57
2022-11-12T10:50:09.301Z,19.67
2022-11-12T10:52:36.675Z,19.90
2022-11-12T10:55:25.520Z,20.17
2022-11-12T10:58:19.813Z,18.63
2022-11-12T11:01:00.930Z,17.70
2022-11-12T11:03:35.550Z,19.27
2022-11-12T11:06:10.314Z,18.80
2022-11-12T11:08:45.756Z,18.80
2022-11-12T11:11:28.951Z,19.93
2022-11-12T11:14:25.575Z,21.60
2022-11-12T11:16:55.192Z,20.63
2022-11-12T11:19:22.614Z,18.37
2022-11-12T11:21:49.727Z,19.57
2022-11-12T11:24:37.980Z,18.83
2022-11-12T11:27:28.370Z,18.90
2022-11-12T11:30:06.471Z,19.03
2022-11-12T11:33:19.473Z,18.07
2022-11-12T11:36:12.926Z,19.33
2022-11-12T11:38:57.725Z,18.10
2022-11-12T11:41:43.659Z,18.93
2022-11-12T11:44:25.753Z,19.33
2022-11-12T11:46:55.617Z,17.63
2022-11-12T11:49:55.157Z,19.47
2022-11-12T11:52:40.799Z,19.33
2022-11-12T11:55:28.833Z,19.77
2022-11-12T11:58:13.506Z,18.60
2022-11-12T12:00:43.168Z,19.00
2022-11-12T12:03:20.339Z,20.10
2022-11-12T12:05:58.591Z,21.50
2022-11-12T12:08:35.048Z,22.30
2022-11-12T12:11:14.166Z,20.57
2022-11-12T12:14:14.642Z,23.33
2022-11-12T12:16:47.217Z,23.83
2022-11-12T12:19:41.704Z,24.07
2022-11-12T12:22:16.672Z,24.30
2022-11-12T12:25:12.506Z,22.47
2022-11-12T12:28:00.807Z,21.93
2022-11-12T12:30:35.219Z,20.50
2022-11-12T12:33:39.589Z,20.87
2022-11-12T12:36:15.842Z,20.20
2022-11-12T12:39:08.244Z,21.37
2022-11-12T12:41:41.238Z,21.93
2022-11-12T12:44:10.533Z,22.70
2022-11-12T12:46:49.394Z,21.60
2022-11-12T12:49:22.336Z,20.37
2022-11-12T12:51:54.446Z,21.13
2022-11-12T12:54:37.829Z,20.93
2022-11-12T12:57:05.068Z,32.53
2022-11-12T12:59:32.571Z,28.70
2022-11-12T13:02:02.668Z,28.60
2022-11-12T13:04:57.476Z,22.93
2022-11-12T13:07:44.372Z,22.10
2022-11-12T13:10:41.938Z,22.37
2022-11-12T13:13:30.673Z,22.30
2022-11-12T13:16:00.612Z,23.20
2022-11-12T13:18:40.125Z,23.07
2022-11-12T13:21:15.405Z,23.70
2022-11-12T13:24:09.300Z,25.73
2022-11-12T13:26:51.091Z,26.73
2022-11-12T13:29:31.129Z,26.63
2022-11-12T13:32:29.591Z,24.80
2022-11-12T13:35:31.145Z,24.10
2022-11-12T13:38:12.816Z,25.67
2022-11-12T13:40:53.965Z,25.60
2022-11-12T13:43:39.961Z,23.80
2022-11-12T13:46:11.008Z,21.87
2022-11-12T13:49:07.334Z,22.17
2022-11-12T13:51:46.690Z,21.67
2022-11-12T13:54:36.741Z,20.97
2022-11-12T13:57:27.071Z,23.07
2022-11-12T14:00:20.729Z,22.07
2022-11-12T14:03:00.544Z,22.87
2022-11-12T14:05:31.028Z,21.80
2022-11-12T14:08:16.083Z,22.93
2022-11-12T14:11:08.436Z,22.87
2022-11-12T14:13:41.420Z,22.63
2022-11-12T14:16:20.477Z,22.50
2022-11-12T14:19:08.464Z,23.07
2022-11-12T14:21:35.528Z,23.97
2022-11-12T14:24:03.596Z,23.93
2022-11-12T14:26:42.787Z,23.50
2022-11-12T14:29:17.728Z,24.87
2022-11-12T14:31:45.562Z,25.33
2022-11-12T14:34:21.521Z,26.73
2022-11-12T14:36:49.289Z,25.13
2022-11-12T14:39:16.209Z,24.10
2022-11-12T14:41:46.106Z,26.10
2022-11-12T14:44:22.357Z,26.20
2022-11-12T14:46:53.815Z,26.20
2022-11-12T14:49:39.354Z,25.93
2022-11-12T14:52:15.776Z,24.87
2022-11-12T14:54:51.479Z,24.17
2022-11-12T14:57:25.096Z,23.63
2022-11-12T14:59:52.206Z,24.20
2022-11-12T15:02:53.392Z,23.73
2022-11-12T15:05:22.181Z,23.87
2022-11-12T15:07:59.743Z,28.40
2022-11-12T15:10:36.089Z,28.63
2022-11-12T15:13:17.301Z,29.27
2022-11-12T15:16:05.542Z,23.77
2022-11-12T15:18:33.926Z,23.40
2022-11-12T15:21:23.407Z,22.40
2022-11-12T15:24:18.800Z,23.37
2022-11-12T15:26:48.251Z,22.80
2022-11-12T15:29:32.014Z,23.50
2022-11-12T15:32:23.821Z,25.23
2022-11-12T15:34:52.264Z,23.07
2022-11-12T15:37:19.207Z,24.03
2022-11-12T15:39:50.150Z,22.70
2022-11-12T15:42:39.879Z,21.70
2022-11-12T15:45:16.544Z,21.07
2022-11-12T15:47:43.634Z,25.03
2022-11-12T15:50:13.629Z,22.77
2022-11-12T15:52:41.451Z,24.83
2022-11-12T15:55:09.746Z,23.60
2022-11-12T15:57:43.907Z,21.13
2022-11-12T16:00:15.532Z,20.97
2022-11-12T16:02:44.103Z,20.23
2022-11-12T16:05:15.773Z,20.97
2022-11-12T16:07:42.955Z,22.23
2022-11-12T16:10:14.942Z,22.67
2022-11-12T16:12:43.063Z,22.90
2022-11-12T16:15:18.348Z,21.80
2022-11-12T16:17:46.359Z,20.43
2022-11-12T16:20:21.350Z,22.47
2022-11-12T16:22:49.528Z,22.13
2022-11-12T16:25:17.864Z,21.37
2022-11-12T16:27:44.997Z,21.27
2022-11-12T16:30:22.302Z,21.93
2022-11-12T16:32:49.554Z,22.20
2022-11-12T16:35:17.322Z,21.40
2022-11-12T16:37:45.593Z,21.53
2022-11-12T16:40:31.357Z,20.37
2022-11-12T16:42:58.568Z,22.00
2022-11-12T16:45:34.698Z,23.70
2022-11-12T16:48:11.443Z,22.60
2022-11-12T16:50:38.370Z,23.17
2022-11-12T16:53:05.425Z,20.97
2022-11-12T16:55:32.280Z,22.00
2022-11-12T16:57:59.141Z,21.40
2022-11-12T17:00:26.369Z,20.87
2022-11-12T17:02:53.766Z,22.80
2022-11-12T17:05:25.544Z,21.33
2022-11-12T17:07:57.927Z,20.73
2022-11-12T17:10:25.513Z,19.97
2022-11-12T17:12:53.022Z,20.77
2022-11-12T17:15:20.092Z,19.97
2022-11-12T17:17:47.241Z,21.67
2022-11-12T17:20:14.414Z,21.97
2022-11-12T17:22:41.507Z,22.70
2022-11-12T17:25:09.260Z,22.13
2022-11-12T17:27:36.164Z,22.33
2022-11-12T17:30:04.503Z,22.73
2022-11-12T17:32:32.200Z,22.83
2022-11-12T17:34:59.078Z,22.50
2022-11-12T17:37:25.957Z,22.23
2022-11-12T17:39:53.099Z,23.37
2022-11-12T17:42:19.950Z,23.63
2022-11-12T17:44:47.082Z,23.20
2022-11-12T17:47:13.955Z,24.73
2022-11-12T17:49:41.090Z,24.67
2022-11-12T17:52:08.277Z,25.20
2022-11-12T17:54:35.470Z,24.93
2022-11-12T17:57:02.562Z,27.20
2022-11-12T17:59:29.713Z,28.27
2022-11-12T18:01:56.923Z,26.50
2022-11-12T18:04:25.117Z,24.97
2022-11-12T18:06:53.631Z,25.47
2022-11-12T18:09:20.746Z,25.93
2022-11-12T18:11:50.763Z,24.07
2022-11-12T18:14:19.044Z,23.03
2022-11-12T18:16:46.297Z,25.53
2022-11-12T18:19:13.374Z,23.93
2022-11-12T18:21:40.590Z,25.87
2022-11-12T18:24:15.703Z,38.47
2022-11-12T18:26:44.311Z,36.30
2022-11-12T18:29:12.599Z,33.90
2022-11-12T18:31:40.661Z,36.57
2022-11-12T18:34:13.504Z,30.37
2022-11-12T18:36:40.330Z,28.63
2022-11-12T18:39:08.264Z,29.10
2022-11-12T18:41:35.389Z,27.63
2022-11-12T18:44:02.736Z,29.23
2022-11-12T18:46:29.660Z,30.23
2022-11-12T18:48:56.806Z,29.37
2022-11-12T18:51:23.931Z,30.33
2022-11-12T18:53:50.871Z,32.73
2022-11-12T18:56:20.070Z,33.93
2022-11-12T18:58:47.803Z,33.10
2022-11-12T19:01:20.539Z,36.00
2022-11-12T19:03:48.753Z,40.77
2022-11-12T19:06:16.693Z,38.60
2022-11-12T19:08:43.927Z,41.30
2022-11-12T19:11:13.181Z,37.07
2022-11-12T19:13:41.725Z,35.70
2022-11-12T19:16:14.510Z,38.40
2022-11-12T19:18:42.068Z,36.47
2022-11-12T19:21:18.730Z,37.63
2022-11-12T19:23:50.011Z,37.47
2022-11-12T19:26:20.100Z,39.40
2022-11-12T19:28:46.979Z,39.97
2022-11-12T19:31:20.017Z,37.97
2022-11-12T19:33:47.520Z,36.20
2022-11-12T19:36:17.337Z,35.73
2022-11-12T19:38:44.785Z,36.90
2022-11-12T19:41:19.511Z,38.37
2022-11-12T19:43:47.699Z,37.87
2022-11-12T19:46:15.337Z,35.90
2022-11-12T19:48:42.913Z,37.30
2022-11-12T19:51:12.372Z,35.33
2022-11-12T19:53:44.441Z,34.00
2022-11-12T19:56:13.635Z,36.40
2022-11-12T19:58:44.993Z,36.87
2022-11-12T20:01:14.228Z,35.37
2022-11-12T20:03:41.717Z,33.50
2022-11-12T20:06:20.105Z,35.20
2022-11-12T20:08:47.387Z,35.27
2022-11-12T20:11:16.253Z,35.27
2022-11-12T20:13:43.300Z,37.30
2022-11-12T20:16:13.985Z,38.70
2022-11-12T20:18:41.182Z,39.20
2022-11-12T20:21:09.285Z,38.73
2022-11-12T20:23:38.109Z,39.33
2022-11-12T20:26:10.501Z,39.03
2022-11-12T20:28:39.675Z,37.53
2022-11-12T20:31:08.089Z,37.57
2022-11-12T20:33:40.847Z,35.93
2022-11-12T20:36:12.123Z,35.20
2022-11-12T20:38:40.971Z,33.33
2022-11-12T20:41:12.272Z,35.70
2022-11-12T20:43:39.447Z,32.37
2022-11-12T20:46:06.293Z,32.97
2022-11-12T20:48:33.458Z,34.20
2022-11-12T20:51:25.046Z,32.43
2022-11-12T20:53:59.936Z,34.40
2022-11-12T20:56:29.988Z,32.90
2022-11-12T20:58:58.927Z,31.67
2022-11-12T21:01:27.633Z,34.83
2022-11-12T21:03:55.268Z,31.90
2022-11-12T21:06:24.875Z,31.23
2022-11-12T21:08:52.378Z,34.00
2022-11-12T21:11:22.521Z,32.67
2022-11-12T21:13:49.795Z,33.37
2022-11-12T21:16:16.975Z,31.53
2022-11-12T21:18:44.234Z,33.10
2022-11-12T21:21:15.533Z,32.10
2022-11-12T21:23:44.167Z,33.67
2022-11-12T21:26:16.542Z,34.17
2022-11-12T21:28:48.339Z,32.90
2022-11-12T21:31:17.983Z,33.60
2022-11-12T21:33:48.419Z,34.33
2022-11-12T21:36:16.709Z,32.63
2022-11-12T21:38:44.485Z,33.73
2022-11-12T21:41:13.756Z,35.03
2022-11-12T21:43:43.800Z,35.30
2022-11-12T21:46:14.508Z,35.53
2022-11-12T21:48:41.863Z,35.63
2022-11-12T21:51:14.288Z,36.30
2022-11-12T21:53:43.176Z,33.13
2022-11-12T21:56:18.414Z,33.80
2022-11-12T21:58:45.520Z,33.70
2022-11-12T22:01:21.266Z,34.33
2022-11-12T22:03:50.056Z,35.37
2022-11-12T22:06:18.663Z,34.43
2022-11-12T22:08:45.561Z,34.27
2022-11-12T22:11:14.651Z,33.00
2022-11-12T22:13:42.434Z,33.87
2022-11-12T22:16:11.736Z,34.17
2022-11-12T22:18:39.572Z,35.10
2022-11-12T22:21:10.317Z,36.30
2022-11-12T22:23:37.476Z,36.33
2022-11-12T22:26:07.088Z,31.73
2022-11-12T22:28:37.098Z,34.70
2022-11-12T22:31:10.415Z,35.53
2022-11-12T22:33:37.780Z,34.30
2022-11-12T22:36:07.949Z,35.60
2022-11-12T22:38:40.956Z,33.33
2022-11-12T22:41:10.491Z,32.47
2022-11-12T22:43:38.083Z,33.03
2022-11-12T22:46:12.035Z,33.93
2022-11-12T22:48:39.301Z,32.63
2022-11-12T22:51:10.540Z,32.67
2022-11-12T22:53:37.515Z,32.60
2022-11-12T22:56:08.345Z,32.70
2022-11-12T22:58:39.540Z,32.73
2022-11-12T23:01:08.572Z,31.13
2022-11-12T23:03:36.154Z,32.17
2022-11-12T23:06:06.508Z,37.23
2022-11-12T23:08:36.027Z,33.00
2022-11-12T23:11:09.338Z,31.77
2022-11-12T23:13:38.511Z,33.37
2022-11-12T23:16:11.613Z,34.70
2022-11-12T23:18:38.785Z,33.07
2022-11-12T23:21:11.018Z,31.50
2022-11-12T23:23:39.022Z,31.90
2022-11-12T23:26:20.637Z,30.20
2022-11-12T23:28:47.617Z,30.80
2022-11-12T23:31:28.117Z,32.17
2022-11-12T23:33:57.330Z,30.97
2022-11-12T23:36:26.230Z,29.20
2022-11-12T23:38:54.026Z,30.20
2022-11-12T23:41:23.004Z,31.90
2022-11-12T23:43:50.609Z,30.70
2022-11-12T23:46:17.645Z,31.33
2022-11-12T23:48:45.010Z,30.80
2022-11-12T23:51:18.598Z,30.23
2022-11-12T23:53:46.661Z,31.47
2022-11-12T23:56:15.587Z,28.93
2022-11-12T23:58:42.904Z,28.63
